Briefing drone pour Veauche

Rechercher une autre localisation

Conditions de vol :


Nous sommes le : Jeudi 20 janvier 2022
Il est 04:48 UTC (05:48 LT)

Lever de soleil : 06:49 UTC (07:49 LT)
Coucher de soleil : 16:58 UTC (17:58 LT)

Météo

L'essentiel des conditions de vol

VIGILANCE MÉTÉO FRANCE - Loire (42)
Vigilance Jaune : Neige-verglas
CARTE TEMSI
CARTES DES FRONTS
METAR de LFMH
LFMH 200430Z AUTO 29003KT 3800 BR BKN008 OVC012 01/00 Q1028

Date d'émission: 20/01/2022
Heure d'émission: 04:30 UTC
Vent: 290° pour 3 KT (6 km/h)
Visibilité horizontale: 3800 m
Plafond :
- Nuages morcelés à 800ft (244m)
- Couvert à 1200ft (366m)
Température: 1 °C
Point de rosée: 0 °C
Humidité: 93%
Pression (QNH): 1028 hPa
Conditions: Brume
TAF de LFMH
LFMH 161901Z 1619/1712 CNL

Conditions prévues :

Heure d'émission : Bulletin éffectué le 16 à 19:00 UTC
Prévision : Valide du 16 a 19:00 UTC au 17 a 12:00 UTC
Nuages : à 0ft (0 m)
WEBCAM POUR VEAUCHE

Réglementation

Voler en sécurité

CARTES AERONAUTIQUE 1/500.000
CARTES VAC (LFMH)
SUP AIP




Chargement des AIP...
NOTAM (VEAUCHE + Terrain à proximité / FIR )




Chargement des NOTAMS...
CONTACT PREFECTURE 42


Avertissement : Les données mises à disposition sont indicatives. Oxygène Drone ne pourra être tenu responsable de dégâts causés aux biens et aux personnes.